Riceton, Canada
Current Conditions -  °F | °C
As of 4:00 PM on Thursday 23 Oct 2014 (Local Time) from CYQR Reporting Station
Overcast Overcast  
Wind Chill: 14°   Ceiling: 20000
Heat Index: 14°   Visibility: 15mi
Dew Point:   Wind: 7mph
Humidity: 55%   Direction: 250°WSW
Pressure: 29.68"   Gusts: NA
Location:  50.1°N, 104.32°W
Report Text: CYQR 232200Z 25006KT 15SM FEW110 OVC200 14/05 A2968 RMK AC1CI7 SLP067 DENSITY ALT 2500FT
Loading
Personal Weather Stations






























Interactive Weather Map
Tropical Storm Tracking
New forecast layout! Learn more

10-Day Weather Forecast

Advertisements
Track Severe Weather on mobile